createdAt,value
2019-03-25T00:04:11.957Z,57.60
2019-03-25T00:10:18.687Z,57.64
2019-03-25T00:16:25.639Z,57.99
2019-03-25T00:22:32.335Z,58.17
2019-03-25T00:28:38.921Z,58.25
2019-03-25T00:34:45.492Z,58.28
2019-03-25T00:40:53.154Z,58.16
2019-03-25T00:46:59.831Z,57.91
2019-03-25T00:53:06.650Z,57.69
2019-03-25T00:59:13.346Z,57.71
2019-03-25T01:05:20.417Z,57.91
2019-03-25T01:11:27.594Z,58.10
2019-03-25T01:17:34.324Z,58.62
2019-03-25T01:23:41.063Z,58.56
2019-03-25T01:29:47.744Z,58.33
2019-03-25T01:35:54.415Z,57.94
2019-03-25T01:42:01.404Z,57.69
2019-03-25T01:48:07.986Z,57.47
2019-03-25T01:54:14.852Z,57.53
2019-03-25T02:00:21.601Z,57.56
2019-03-25T02:06:28.170Z,57.73
2019-03-25T02:12:35.118Z,57.85
2019-03-25T02:18:41.678Z,58.03
2019-03-25T02:24:48.223Z,57.80
2019-03-25T02:30:55.283Z,57.64
2019-03-25T02:37:01.943Z,57.68
2019-03-25T02:43:10.391Z,57.64
2019-03-25T02:49:17.130Z,57.66
2019-03-25T02:55:23.692Z,57.87
2019-03-25T03:01:30.421Z,57.99
2019-03-25T03:07:37.178Z,58.19
2019-03-25T03:13:43.786Z,58.48
2019-03-25T03:19:50.493Z,58.76
2019-03-25T03:25:58.291Z,59.21
2019-03-25T03:32:05.137Z,59.25
2019-03-25T03:38:11.698Z,59.39
2019-03-25T03:44:18.289Z,59.52
2019-03-25T03:50:29.323Z,59.95
2019-03-25T03:56:35.798Z,60.58
2019-03-25T04:02:42.433Z,61.24
2019-03-25T04:08:49.057Z,62.71
2019-03-25T04:14:55.602Z,63.72
2019-03-25T04:21:02.195Z,64.03
2019-03-25T04:27:08.765Z,64.12
2019-03-25T04:33:15.337Z,64.05
2019-03-25T04:39:21.876Z,64.37
2019-03-25T04:45:28.433Z,64.46
2019-03-25T04:51:35.083Z,64.33
2019-03-25T04:57:41.756Z,64.51
2019-03-25T05:03:48.605Z,64.47
2019-03-25T05:09:55.217Z,64.50
2019-03-25T05:16:01.870Z,64.62
2019-03-25T05:22:10.934Z,64.40
2019-03-25T05:28:17.016Z,64.23
2019-03-25T05:34:23.855Z,64.32
2019-03-25T05:40:30.406Z,64.35
2019-03-25T05:46:37.159Z,64.23
2019-03-25T05:52:43.913Z,63.86
2019-03-25T05:58:50.476Z,63.90
2019-03-25T06:04:57.171Z,63.93
2019-03-25T06:11:03.764Z,64.16
2019-03-25T06:17:10.671Z,63.93
2019-03-25T06:23:17.265Z,64.17
2019-03-25T06:29:23.904Z,64.45
2019-03-25T06:35:30.589Z,64.87
2019-03-25T06:41:37.186Z,64.89
2019-03-25T06:47:43.783Z,65.10
2019-03-25T06:53:50.395Z,65.10
2019-03-25T06:59:57.220Z,64.56
2019-03-25T07:06:03.828Z,64.12
2019-03-25T07:12:10.549Z,63.21
2019-03-25T07:18:17.323Z,62.62
2019-03-25T07:24:24.842Z,61.99
2019-03-25T07:30:31.598Z,61.35
2019-03-25T07:36:38.337Z,61.11
2019-03-25T07:42:45.237Z,60.91
2019-03-25T07:48:51.880Z,60.06
2019-03-25T07:54:58.484Z,59.32
2019-03-25T08:01:05.375Z,58.97
2019-03-25T08:07:12.051Z,58.56
2019-03-25T08:13:18.704Z,57.17
2019-03-25T08:19:25.542Z,55.99
2019-03-25T08:25:32.155Z,55.70
2019-03-25T08:31:38.993Z,54.72
2019-03-25T08:37:45.745Z,55.04
2019-03-25T08:43:52.366Z,56.21
2019-03-25T08:49:59.004Z,56.37
2019-03-25T08:56:05.857Z,56.06
2019-03-25T09:02:12.467Z,55.68
2019-03-25T09:08:19.086Z,55.75
2019-03-25T09:14:25.907Z,58.98
2019-03-25T09:20:32.584Z,61.13
2019-03-25T09:26:39.390Z,65.08
2019-03-25T09:32:46.009Z,68.72
2019-03-25T09:38:52.966Z,69.29
2019-03-25T09:44:59.546Z,69.37
2019-03-25T09:51:06.717Z,68.78
2019-03-25T09:57:13.376Z,69.54
2019-03-25T10:03:20.034Z,69.83
2019-03-25T10:09:26.652Z,68.44
2019-03-25T10:15:33.820Z,68.55
2019-03-25T10:21:40.561Z,67.74
2019-03-25T10:27:47.505Z,66.49
2019-03-25T10:33:54.103Z,66.01
2019-03-25T10:40:00.821Z,64.93
2019-03-25T10:46:07.620Z,63.68
2019-03-25T10:52:14.278Z,60.66
2019-03-25T10:58:20.978Z,58.86
2019-03-25T11:04:27.923Z,61.48
2019-03-25T11:10:34.727Z,68.15
2019-03-25T11:16:41.416Z,68.31
2019-03-25T11:22:48.065Z,67.69
2019-03-25T11:28:54.964Z,64.62
2019-03-25T11:35:01.636Z,61.78
2019-03-25T11:41:08.668Z,60.98
2019-03-25T11:47:15.786Z,60.25
2019-03-25T11:53:22.431Z,58.90
2019-03-25T11:59:29.227Z,57.98
2019-03-25T12:05:35.955Z,54.73
2019-03-25T12:11:42.732Z,53.69
2019-03-25T12:17:49.402Z,51.35
2019-03-25T12:23:55.989Z,61.27
2019-03-25T12:30:02.621Z,65.45
2019-03-25T12:36:09.706Z,64.29
2019-03-25T12:42:16.565Z,63.03
2019-03-25T12:48:25.263Z,60.88
2019-03-25T12:54:32.050Z,59.48
2019-03-25T13:00:43.489Z,58.74
2019-03-25T13:06:50.585Z,59.02
2019-03-25T13:12:58.605Z,56.32
2019-03-25T13:19:05.373Z,57.26
2019-03-25T13:25:12.167Z,56.47
2019-03-25T13:31:18.852Z,56.76
2019-03-25T13:37:25.503Z,56.89
2019-03-25T13:43:32.197Z,66.87
2019-03-25T13:49:38.983Z,69.66
2019-03-25T13:55:45.685Z,69.08
2019-03-25T14:01:52.461Z,65.91
2019-03-25T14:07:59.127Z,65.15
2019-03-25T14:14:05.719Z,65.06
2019-03-25T14:20:12.608Z,66.65
2019-03-25T14:26:19.210Z,68.42
2019-03-25T14:32:25.964Z,68.62
2019-03-25T14:38:32.724Z,65.94
2019-03-25T14:44:39.456Z,63.09
2019-03-25T14:50:46.130Z,62.93
2019-03-25T14:56:52.887Z,63.23
2019-03-25T15:02:59.601Z,63.38
2019-03-25T15:09:08.769Z,63.21
2019-03-25T15:15:15.788Z,61.11
2019-03-25T15:21:22.678Z,62.72
2019-03-25T15:27:29.355Z,67.06
2019-03-25T15:33:35.967Z,69.65
2019-03-25T15:39:46.878Z,67.38
2019-03-25T15:45:52.160Z,68.15
2019-03-25T15:51:59.053Z,67.91
2019-03-25T15:58:05.656Z,67.07
2019-03-25T16:04:12.273Z,64.33
2019-03-25T16:10:19.617Z,61.60
2019-03-25T16:16:26.754Z,60.71
2019-03-25T16:22:33.441Z,60.26
2019-03-25T16:28:40.111Z,58.52
2019-03-25T16:34:46.696Z,57.81
2019-03-25T16:40:53.295Z,55.79
2019-03-25T16:47:00.137Z,54.74
2019-03-25T16:53:06.757Z,54.89
2019-03-25T16:59:13.679Z,54.42
2019-03-25T17:05:20.420Z,53.15
2019-03-25T17:11:27.116Z,53.13
2019-03-25T17:17:34.224Z,53.02
2019-03-25T17:23:40.905Z,53.40
2019-03-25T17:29:47.501Z,53.97
2019-03-25T17:35:54.177Z,53.14
2019-03-25T17:42:01.200Z,53.13
2019-03-25T17:48:08.062Z,53.40
2019-03-25T17:54:15.754Z,53.19
2019-03-25T18:01:00.090Z,53.60
2019-03-25T18:07:07.623Z,53.82
2019-03-25T18:13:22.410Z,53.87
2019-03-25T18:19:22.683Z,53.82
2019-03-25T18:25:29.616Z,54.15
2019-03-25T18:31:43.172Z,53.99
2019-03-25T18:37:44.757Z,54.10
2019-03-25T18:43:51.679Z,54.26
2019-03-25T18:49:58.525Z,54.17
2019-03-25T18:56:05.227Z,54.58
2019-03-25T19:02:11.881Z,54.76
2019-03-25T19:08:18.501Z,55.00
2019-03-25T19:14:25.263Z,54.91
2019-03-25T19:20:32.005Z,55.45
2019-03-25T19:26:38.774Z,55.75
2019-03-25T19:32:51.052Z,56.02
2019-03-25T19:38:58.020Z,56.26
2019-03-25T19:45:05.257Z,56.65
2019-03-25T19:51:12.286Z,56.68
2019-03-25T19:57:19.389Z,56.95
2019-03-25T20:03:26.152Z,57.42
2019-03-25T20:09:33.990Z,57.90
2019-03-25T20:15:46.606Z,58.57
2019-03-25T20:21:49.229Z,58.90
2019-03-25T20:27:58.810Z,59.13
2019-03-25T20:34:11.158Z,59.57
2019-03-25T20:40:15.337Z,59.66
2019-03-25T20:46:22.082Z,59.80
2019-03-25T20:52:29.136Z,60.07
2019-03-25T20:58:36.387Z,60.05
2019-03-25T21:04:43.026Z,59.94
2019-03-25T21:10:49.760Z,59.79
2019-03-25T21:16:56.442Z,59.94
2019-03-25T21:23:03.247Z,59.96
2019-03-25T21:29:10.328Z,59.95
2019-03-25T21:35:17.401Z,60.12
2019-03-25T21:41:24.065Z,60.69
2019-03-25T21:47:30.774Z,60.94
2019-03-25T21:53:37.439Z,61.07
2019-03-25T21:59:44.068Z,61.19
2019-03-25T22:05:50.888Z,61.12
2019-03-25T22:11:57.567Z,61.41
2019-03-25T22:18:04.221Z,61.80
2019-03-25T22:24:11.410Z,62.03
2019-03-25T22:30:18.186Z,62.36
2019-03-25T22:36:24.791Z,62.18
2019-03-25T22:42:31.386Z,62.41
2019-03-25T22:48:38.045Z,62.47
2019-03-25T22:54:44.691Z,62.56
2019-03-25T23:00:51.413Z,62.70
2019-03-25T23:06:58.023Z,62.51
2019-03-25T23:13:04.574Z,62.46
2019-03-25T23:19:11.284Z,62.29
2019-03-25T23:25:18.185Z,62.42
2019-03-25T23:31:25.092Z,62.15
2019-03-25T23:37:31.706Z,62.13
2019-03-25T23:43:38.313Z,62.25
2019-03-25T23:49:45.010Z,62.12
2019-03-25T23:55:51.611Z,61.99
